Time;durP1;ratioP1;P1;durP2;ratioP2;P2;SDS_P1;SDS_P2;PMS_P1;PMS_P2;Temp;Humidity;BMP_temperature;BMP_pressure;BME280_temperature;BME280_humidity;BME280_pressure;Samples;Min_cycle;Max_cycle;Signal;HPM_P1;HPM_P2
2023/05/12 04:39:54;;;;;;;11.63;8.47;;;;;;;12.42;100.00;95902.66;5022203;28;20116;-83
2023/05/12 04:42:23;;;;;;;12.43;8.67;;;;;;;12.33;100.00;95895.00;4996721;28;20040;-84
2023/05/12 04:44:50;;;;;;;13.33;8.67;;;;;;;12.32;100.00;95904.75;5000108;28;20169;-83
2023/05/12 04:47:16;;;;;;;12.00;8.90;;;;;;;12.37;100.00;95906.84;4986828;28;20128;-83
2023/05/12 04:50:00;;;;;;;11.30;8.80;;;;;;;12.42;100.00;95907.94;5003105;28;20048;-83
2023/05/12 04:52:27;;;;;;;12.90;8.93;;;;;;;12.44;100.00;95908.59;4993628;28;20034;-84
2023/05/12 04:54:57;;;;;;;10.93;8.40;;;;;;;12.53;100.00;95911.16;5013204;28;20021;-83
2023/05/12 04:57:29;;;;;;;12.40;9.50;;;;;;;12.62;100.00;95910.09;5013402;28;20044;-83
2023/05/12 05:00:05;;;;;;;12.40;8.73;;;;;;;12.32;100.00;95910.00;4997491;28;20029;-84
2023/05/12 05:02:47;;;;;;;14.83;9.67;;;;;;;12.37;100.00;95914.75;4996860;28;20025;-84
2023/05/12 05:05:13;;;;;;;14.50;9.77;;;;;;;12.49;100.00;95911.50;4995682;28;20053;-83
2023/05/12 05:07:39;;;;;;;12.50;9.50;;;;;;;12.38;100.00;95919.03;5013117;28;20053;-83
2023/05/12 05:10:06;;;;;;;12.77;9.57;;;;;;;12.40;100.00;95915.19;5000454;28;20860;-84
2023/05/12 05:12:32;;;;;;;13.07;9.63;;;;;;;12.55;100.00;95922.34;5011642;28;20084;-83
2023/05/12 05:14:57;;;;;;;13.70;10.03;;;;;;;12.53;100.00;95925.16;4997169;28;20491;-84
2023/05/12 05:17:23;;;;;;;14.00;10.57;;;;;;;12.66;100.00;95919.28;4987531;28;20615;-84
2023/05/12 05:19:49;;;;;;;14.00;11.37;;;;;;;12.50;100.00;95914.97;5008826;28;20036;-85
2023/05/12 05:22:15;;;;;;;14.33;11.03;;;;;;;12.36;100.00;95924.47;4981754;28;20026;-84
2023/05/12 05:24:55;;;;;;;14.20;11.23;;;;;;;12.49;100.00;95927.34;5002261;28;20487;-84
2023/05/12 05:27:21;;;;;;;15.07;10.57;;;;;;;12.26;100.00;95931.81;5011477;28;20040;-84
2023/05/12 05:29:46;;;;;;;14.77;10.90;;;;;;;12.43;100.00;95922.75;5012628;28;20414;-84
2023/05/12 05:32:13;;;;;;;17.40;12.57;;;;;;;12.53;100.00;95932.25;4988310;28;20017;-84
2023/05/12 05:34:38;;;;;;;16.37;12.27;;;;;;;12.29;100.00;95933.28;5003045;28;20092;-84
2023/05/12 05:37:26;;;;;;;16.43;11.93;;;;;;;12.30;100.00;95940.19;5004388;28;20022;-84
2023/05/12 05:40:26;;;;;;;13.17;10.03;;;;;;;12.32;100.00;95933.75;5019330;28;20044;-84
2023/05/12 05:42:52;;;;;;;13.30;10.27;;;;;;;12.42;100.00;95938.78;4995032;28;20052;-84
2023/05/12 05:45:17;;;;;;;14.90;11.97;;;;;;;12.48;100.00;95938.06;5001908;28;20568;-84
2023/05/12 05:47:43;;;;;;;20.17;14.20;;;;;;;12.49;100.00;95934.44;4989885;28;20074;-84
2023/05/12 05:50:09;;;;;;;16.37;11.63;;;;;;;12.67;100.00;95936.72;5005341;28;20022;-84
2023/05/12 05:52:37;;;;;;;16.20;11.77;;;;;;;12.54;100.00;95937.38;5005817;28;20159;-84
2023/05/12 05:55:14;;;;;;;15.87;10.40;;;;;;;12.41;100.00;95940.59;4997330;28;20059;-84
2023/05/12 05:57:41;;;;;;;15.77;10.30;;;;;;;12.50;100.00;95941.34;4989365;28;20038;-84
2023/05/12 06:00:08;;;;;;;13.30;9.50;;;;;;;12.53;100.00;95942.81;5007682;28;20041;-84
2023/05/12 06:02:43;;;;;;;13.50;10.47;;;;;;;12.51;100.00;95940.34;5012367;28;20037;-84
2023/05/12 06:05:12;;;;;;;15.23;11.37;;;;;;;12.73;100.00;95939.47;5005283;28;20037;-84
2023/05/12 06:07:38;;;;;;;13.57;10.23;;;;;;;12.75;100.00;95936.66;5005059;28;20021;-85
2023/05/12 06:10:05;;;;;;;14.67;10.83;;;;;;;12.55;100.00;95943.44;5005063;28;20029;-84
2023/05/12 06:12:32;;;;;;;15.10;12.40;;;;;;;12.44;100.00;95948.16;5009568;28;20013;-84
2023/05/12 06:14:58;;;;;;;16.23;12.37;;;;;;;12.83;100.00;95947.13;5003715;28;20087;-84
2023/05/12 06:17:23;;;;;;;14.30;10.20;;;;;;;13.01;100.00;95943.31;4993533;28;20030;-84
2023/05/12 06:19:49;;;;;;;13.33;9.77;;;;;;;13.14;100.00;95946.16;5016020;28;20025;-83
2023/05/12 06:22:15;;;;;;;14.30;10.77;;;;;;;13.30;100.00;95943.34;5006298;28;20026;-84
2023/05/12 06:24:40;;;;;;;13.10;10.40;;;;;;;13.33;100.00;95945.63;5008786;28;20030;-84
2023/05/12 06:27:08;;;;;;;13.17;10.27;;;;;;;13.20;100.00;95940.13;4993468;28;20049;-84
2023/05/12 06:29:34;;;;;;;13.07;10.67;;;;;;;13.19;100.00;95947.25;5006654;28;20029;-86
2023/05/12 06:31:59;;;;;;;13.90;10.00;;;;;;;13.55;100.00;95945.72;5000997;28;20391;-86
2023/05/12 06:34:25;;;;;;;11.40;9.50;;;;;;;13.60;100.00;95941.50;4995746;28;20022;-84
2023/05/12 06:36:51;;;;;;;12.33;10.03;;;;;;;13.45;100.00;95946.00;5006437;28;20510;-84
2023/05/12 06:39:17;;;;;;;14.50;10.77;;;;;;;13.61;100.00;95943.13;5007058;28;20029;-84
2023/05/12 06:41:42;;;;;;;13.27;9.87;;;;;;;13.62;100.00;95938.69;5010851;28;20018;-84
2023/05/12 06:44:18;;;;;;;14.83;10.40;;;;;;;13.31;100.00;95942.38;5006924;28;20034;-84
2023/05/12 06:46:43;;;;;;;13.97;10.47;;;;;;;13.47;100.00;95937.88;5005865;28;20029;-84
2023/05/12 06:49:09;;;;;;;13.13;9.80;;;;;;;13.14;100.00;95954.06;5008574;28;20030;-83
2023/05/12 06:51:35;;;;;;;11.13;9.17;;;;;;;12.82;100.00;95952.59;5006292;28;20040;-84
2023/05/12 06:54:01;;;;;;;13.20;10.63;;;;;;;13.02;100.00;95955.53;4995661;28;20030;-85
2023/05/12 06:56:30;;;;;;;11.77;10.03;;;;;;;12.71;100.00;95959.13;5013808;28;20028;-85
2023/05/12 06:59:01;;;;;;;11.50;9.47;;;;;;;12.89;100.00;95954.34;5010173;28;20033;-84
2023/05/12 07:01:27;;;;;;;13.60;11.20;;;;;;;12.76;100.00;95962.03;4995475;28;20060;-84
2023/05/12 07:03:53;;;;;;;12.20;10.27;;;;;;;12.78;100.00;95959.25;5007820;28;20020;-84
2023/05/12 07:06:22;;;;;;;13.73;11.47;;;;;;;12.92;100.00;95955.81;4999313;28;20029;-84
2023/05/12 07:08:47;;;;;;;13.07;10.70;;;;;;;12.67;100.00;95952.56;5002693;28;20075;-85
2023/05/12 07:11:18;;;;;;;14.47;11.43;;;;;;;13.26;100.00;95949.19;5006944;28;20041;-85
2023/05/12 07:13:51;;;;;;;13.83;11.17;;;;;;;14.01;100.00;95948.03;5006034;28;20022;-84
2023/05/12 07:16:17;;;;;;;14.90;11.73;;;;;;;14.17;100.00;95939.88;5007320;28;20513;-85
2023/05/12 07:18:43;;;;;;;13.63;11.83;;;;;;;14.32;100.00;95942.47;4985506;28;20352;-85
2023/05/12 07:21:09;;;;;;;15.70;13.50;;;;;;;14.49;100.00;95941.19;4990354;28;20084;-85
2023/05/12 07:23:36;;;;;;;19.63;15.03;;;;;;;14.02;100.00;95947.06;5018202;28;20029;-85
2023/05/12 07:26:03;;;;;;;17.83;14.93;;;;;;;14.19;100.00;95937.06;5023006;28;20028;-84
2023/05/12 07:28:36;;;;;;;18.83;15.70;;;;;;;14.23;100.00;95940.94;5014610;28;20455;-85
2023/05/12 07:31:12;;;;;;;17.80;13.80;;;;;;;14.17;100.00;95939.88;5007792;28;20041;-85
2023/05/12 07:33:40;;;;;;;17.07;14.63;;;;;;;13.90;100.00;95936.16;4991005;28;20025;-85
2023/05/12 07:36:07;;;;;;;16.80;14.40;;;;;;;13.98;100.00;95940.50;5002794;28;20025;-85
2023/05/12 07:38:36;;;;;;;18.30;14.63;;;;;;;14.06;100.00;95941.19;4996863;28;20033;-84
2023/05/12 07:41:02;;;;;;;21.20;15.27;;;;;;;13.66;100.00;95942.59;5007513;28;20495;-85
2023/05/12 07:43:28;;;;;;;17.53;15.33;;;;;;;13.68;100.00;95946.69;5012188;28;20029;-85
2023/05/12 07:45:54;;;;;;;17.77;15.40;;;;;;;13.71;100.00;95945.47;5032579;28;20121;-84
2023/05/12 07:48:21;;;;;;;16.00;14.07;;;;;;;13.59;100.00;95939.06;5005015;28;20029;-85
2023/05/12 07:50:46;;;;;;;18.30;13.00;;;;;;;13.96;100.00;95938.03;5014679;28;20044;-85
2023/05/12 07:53:12;;;;;;;15.93;13.13;;;;;;;13.89;100.00;95937.16;4999678;28;20104;-85
2023/05/12 07:55:42;;;;;;;17.60;13.83;;;;;;;13.60;100.00;95940.69;5015983;28;20084;-85
2023/05/12 07:58:08;;;;;;;15.40;13.23;;;;;;;14.07;100.00;95944.66;5009248;28;20113;-85
2023/05/12 08:00:34;;;;;;;16.10;12.20;;;;;;;13.95;100.00;95940.84;5004479;28;20014;-85
2023/05/12 08:02:59;;;;;;;14.77;12.50;;;;;;;13.88;100.00;95943.44;4989989;28;20100;-84
2023/05/12 08:05:25;;;;;;;13.63;11.60;;;;;;;13.89;100.00;95943.25;4985208;28;20021;-85
2023/05/12 08:07:51;;;;;;;15.40;11.80;;;;;;;13.68;100.00;95951.13;5012562;28;20029;-85
2023/05/12 08:10:18;;;;;;;14.53;12.23;;;;;;;13.98;100.00;95943.13;4985966;28;20530;-85
2023/05/12 08:12:43;;;;;;;14.03;11.60;;;;;;;13.78;100.00;95943.75;5000587;28;20014;-85
2023/05/12 08:15:09;;;;;;;18.37;15.23;;;;;;;14.46;100.00;95943.41;4983087;28;20026;-85
2023/05/12 08:17:35;;;;;;;14.37;12.87;;;;;;;15.05;100.00;95937.75;5003606;28;20029;-85
2023/05/12 08:20:04;;;;;;;13.43;11.57;;;;;;;15.06;100.00;95934.09;5000337;28;20304;-85
2023/05/12 08:22:30;;;;;;;14.50;11.87;;;;;;;15.39;100.00;95930.81;5015026;28;20680;-85
2023/05/12 08:24:55;;;;;;;16.63;14.03;;;;;;;16.65;100.00;95936.47;5014125;28;20032;-85
2023/05/12 08:27:21;;;;;;;12.90;11.35;;;;;;;15.91;100.00;95930.22;5007641;28;20029;-85
2023/05/12 08:29:46;;;;;;;14.18;11.27;;;;;;;15.49;100.00;95931.25;5009859;28;20014;-85
2023/05/12 08:32:12;;;;;;;11.68;9.90;;;;;;;16.00;100.00;95937.00;4991445;28;20037;-85
2023/05/12 08:34:38;;;;;;;11.65;10.23;;;;;;;15.98;100.00;95933.72;5002277;28;20042;-85
2023/05/12 08:37:05;;;;;;;14.05;10.70;;;;;;;15.45;100.00;95935.31;4991174;28;20025;-86
2023/05/12 08:39:32;;;;;;;12.95;10.15;;;;;;;15.89;100.00;95932.25;4996951;28;20025;-85
2023/05/12 08:45:40;;;;;;;11.40;9.77;;;;;;;14.90;100.00;95934.41;5026921;28;20033;-85
2023/05/12 08:48:08;;;;;;;10.93;9.32;;;;;;;15.16;100.00;95939.06;4992032;28;20071;-85
2023/05/12 08:50:39;;;;;;;11.02;8.82;;;;;;;15.37;100.00;95938.16;4995228;28;20366;-85
2023/05/12 08:53:09;;;;;;;13.35;9.43;;;;;;;15.37;100.00;95943.44;5010696;28;20077;-85
2023/05/12 08:55:35;;;;;;;13.80;9.25;;;;;;;15.91;100.00;95938.19;5018934;28;20033;-85
2023/05/12 08:58:02;;;;;;;12.00;9.00;;;;;;;16.54;100.00;95937.88;5003612;28;20037;-84
2023/05/12 09:00:28;;;;;;;10.60;8.15;;;;;;;16.38;100.00;95938.28;4997473;28;20038;-85
2023/05/12 09:02:54;;;;;;;10.02;8.20;;;;;;;16.16;100.00;95941.13;4992768;28;20021;-85
2023/05/12 09:05:29;;;;;;;8.18;6.63;;;;;;;15.48;100.00;95937.56;5003671;28;20026;-85
2023/05/12 09:07:56;;;;;;;9.75;7.38;;;;;;;15.88;100.00;95937.75;5015749;28;20022;-84
2023/05/12 09:10:23;;;;;;;8.95;6.35;;;;;;;15.57;100.00;95939.06;5010780;28;20421;-85
2023/05/12 09:12:53;;;;;;;8.27;5.53;;;;;;;16.85;100.00;95931.97;4993883;28;20464;-86
2023/05/12 09:15:26;;;;;;;9.32;6.18;;;;;;;17.46;100.00;95932.66;5014335;28;20021;-85
2023/05/12 09:17:51;;;;;;;11.13;6.00;;;;;;;18.99;100.00;95921.94;5017513;28;20029;-86
2023/05/12 09:20:17;;;;;;;8.10;4.45;;;;;;;18.67;100.00;95931.81;4989191;28;20041;-86
2023/05/12 09:22:44;;;;;;;6.35;4.07;;;;;;;19.02;100.00;95932.19;5013931;28;20108;-91
2023/05/12 09:37:14;;;;;;;7.25;5.30;;;;;;;16.21;100.00;95953.75;4991394;28;20041;-90
2023/05/12 09:39:40;;;;;;;7.90;6.32;;;;;;;16.10;100.00;95952.53;4977466;28;20247;-89
2023/05/12 09:42:11;;;;;;;7.93;5.70;;;;;;;16.64;100.00;95954.22;4956475;28;20045;-90
2023/05/12 09:44:38;;;;;;;6.93;5.20;;;;;;;15.66;100.00;95947.63;4986330;28;20030;-89
2023/05/12 09:47:08;;;;;;;9.25;5.60;;;;;;;16.26;100.00;95946.00;4957581;28;20034;-89
2023/05/12 09:49:34;;;;;;;9.48;5.47;;;;;;;15.32;100.00;95954.63;4980445;28;20318;-91
2023/05/12 09:52:00;;;;;;;7.70;5.60;;;;;;;15.73;100.00;95953.84;4997603;28;20029;-88
2023/05/12 09:54:30;;;;;;;8.18;5.85;;;;;;;15.57;100.00;95957.59;4997639;28;20037;-85
2023/05/12 09:57:03;;;;;;;8.23;6.07;;;;;;;15.71;100.00;95953.22;5004627;28;20082;-86
2023/05/12 09:59:50;;;;;;;7.28;5.88;;;;;;;15.35;100.00;95951.56;5002309;28;20046;-86
2023/05/12 10:02:17;;;;;;;7.40;5.75;;;;;;;15.94;100.00;95952.88;4998256;28;20057;-89
2023/05/12 10:04:51;;;;;;;9.52;6.03;;;;;;;15.58;100.00;95948.63;5003226;28;20036;-88
2023/05/12 10:07:21;;;;;;;8.07;6.05;;;;;;;15.85;100.00;95954.06;5003136;28;20033;-89
2023/05/12 10:09:54;;;;;;;8.93;6.00;;;;;;;16.26;100.00;95946.84;4985507;28;20022;-91
2023/05/12 10:12:20;;;;;;;9.95;6.50;;;;;;;16.24;100.00;95954.19;5010306;28;20033;-91
2023/05/12 10:15:44;;;;;;;6.93;5.03;;;;;;;16.33;100.00;95957.47;5008377;28;20029;-93
2023/05/12 10:19:11;;;;;;;8.23;5.15;;;;;;;15.53;100.00;95953.72;4901084;29;20525;-92
2023/05/12 10:22:29;;;;;;;11.85;6.00;;;;;;;15.64;100.00;95957.63;4878281;29;20840;-92
2023/05/12 10:25:23;;;;;;;7.25;5.78;;;;;;;15.24;100.00;95968.03;4887000;29;20036;-91
2023/05/12 10:28:18;;;;;;;7.93;5.60;;;;;;;15.67;100.00;95968.69;4929541;29;20127;-92
2023/05/12 10:31:40;;;;;;;10.13;6.65;;;;;;;15.79;100.00;95969.78;4930240;29;20039;-93
2023/05/12 10:34:15;;;;;;;8.07;6.72;;;;;;;15.60;100.00;95967.81;4879759;29;20044;-92
2023/05/12 10:36:48;;;;;;;8.10;6.30;;;;;;;15.63;100.00;95970.06;4856543;29;20046;-92
2023/05/12 10:39:14;;;;;;;8.88;7.10;;;;;;;15.69;100.00;95973.78;4906729;29;20059;-92
2023/05/12 10:41:41;;;;;;;8.95;7.03;;;;;;;15.34;100.00;95973.78;4981088;28;20638;-92
2023/05/12 10:44:09;;;;;;;8.32;6.75;;;;;;;15.45;100.00;95969.78;4997451;28;20034;-92
2023/05/12 10:46:34;;;;;;;9.32;7.57;;;;;;;15.42;100.00;95980.75;5009200;28;20022;-92
2023/05/12 10:49:08;;;;;;;9.70;7.82;;;;;;;15.13;100.00;95972.03;4998281;28;20107;-92
2023/05/12 10:51:49;;;;;;;9.73;8.07;;;;;;;15.14;100.00;95983.44;4998733;28;20029;-91
2023/05/12 10:54:23;;;;;;;14.07;8.30;;;;;;;15.43;100.00;95974.47;5014218;28;20029;-91
2023/05/12 10:56:49;;;;;;;;;;;;;;;15.06;100.00;95971.19;5008890;28;20032;-92
2023/05/12 10:59:25;;;;;;;12.25;8.07;;;;;;;15.19;100.00;95967.78;4994151;28;20161;-92
2023/05/12 11:02:04;;;;;;;12.05;8.13;;;;;;;15.22;100.00;95976.16;5007766;28;20045;-92
2023/05/12 11:04:40;;;;;;;9.50;7.47;;;;;;;15.06;100.00;95973.84;5021907;28;20013;-91
2023/05/12 11:07:09;;;;;;;9.98;7.25;;;;;;;15.16;100.00;95976.97;5021371;28;20026;-92
2023/05/12 11:09:40;;;;;;;13.98;8.18;;;;;;;15.29;100.00;95974.38;4998139;28;20024;-92
2023/05/12 11:12:08;;;;;;;8.63;7.10;;;;;;;14.81;100.00;95974.25;5006000;28;20029;-92
2023/05/12 11:14:44;;;;;;;8.93;7.10;;;;;;;14.82;100.00;95991.78;5003307;28;20100;-91
2023/05/12 11:17:10;;;;;;;9.10;7.07;;;;;;;14.81;100.00;95976.06;5018144;28;20591;-92
2023/05/12 11:19:38;;;;;;;10.63;7.10;;;;;;;14.54;100.00;95993.56;4993393;28;20113;-91
2023/05/12 11:22:09;;;;;;;8.27;6.70;;;;;;;14.99;100.00;95994.13;4993522;28;20468;-91
2023/05/12 11:24:36;;;;;;;9.17;7.20;;;;;;;14.73;100.00;95989.47;5008608;28;20025;-92
2023/05/12 11:27:06;;;;;;;12.27;7.80;;;;;;;14.71;100.00;95994.94;5002724;28;20018;-92
2023/05/12 11:29:32;;;;;;;10.73;6.83;;;;;;;14.69;100.00;95999.63;5000009;28;20430;-90
2023/05/12 11:32:01;;;;;;;13.33;7.73;;;;;;;14.77;100.00;95998.66;5000612;28;20030;-92
2023/05/12 11:34:27;;;;;;;10.50;7.63;;;;;;;14.73;100.00;95997.41;5008135;28;20065;-92
2023/05/12 11:36:54;;;;;;;10.30;7.50;;;;;;;14.61;100.00;95999.72;5000481;28;20065;-91
2023/05/12 11:39:22;;;;;;;8.97;7.40;;;;;;;14.74;100.00;95999.84;5010609;28;20182;-92
2023/05/12 11:41:49;;;;;;;9.37;7.70;;;;;;;14.95;100.00;95999.00;4998212;28;20033;-91
2023/05/12 11:44:23;;;;;;;9.53;8.03;;;;;;;15.08;100.00;95996.44;4994594;28;20026;-91
2023/05/12 11:46:57;;;;;;;9.68;7.63;;;;;;;15.45;100.00;95996.28;4998830;28;20064;-91
2023/05/12 11:49:24;;;;;;;9.85;8.77;;;;;;;15.21;100.00;95995.72;5014894;28;20030;-91
2023/05/12 11:51:54;;;;;;;12.15;8.68;;;;;;;15.26;100.00;96003.09;4999361;28;20030;-90
2023/05/12 11:54:20;;;;;;;13.40;10.40;;;;;;;15.16;100.00;96005.28;5002714;28;20032;-91
2023/05/12 11:56:51;;;;;;;13.25;8.50;;;;;;;14.85;100.00;96017.03;5010371;28;20025;-92
2023/05/12 11:59:34;;;;;;;9.77;8.02;;;;;;;14.76;100.00;96012.91;4992769;28;20025;-91
2023/05/12 12:02:01;;;;;;;9.48;8.43;;;;;;;14.84;100.00;96010.94;4991075;28;20037;-91
2023/05/12 12:04:35;;;;;;;10.48;8.63;;;;;;;14.58;100.00;96016.00;5000799;28;20117;-91
2023/05/12 12:07:02;;;;;;;9.93;8.93;;;;;;;14.29;100.00;96020.38;4989507;28;20026;-91
2023/05/12 12:09:36;;;;;;;11.97;9.53;;;;;;;14.37;100.00;96020.25;4993817;28;20025;-91
2023/05/12 12:12:07;;;;;;;12.43;10.23;;;;;;;14.51;100.00;96026.50;4988154;28;20029;-91
2023/05/12 12:14:34;;;;;;;12.85;10.15;;;;;;;14.45;100.00;96037.00;4985645;28;20032;-91
2023/05/12 12:17:01;;;;;;;13.10;10.70;;;;;;;14.91;100.00;96031.34;5007398;28;20487;-91
2023/05/12 12:19:27;;;;;;;11.10;9.90;;;;;;;14.61;100.00;96020.91;4995949;28;20026;-91
2023/05/12 12:21:54;;;;;;;14.27;10.27;;;;;;;14.11;100.00;96027.88;4985177;28;20057;-90
2023/05/12 12:24:20;;;;;;;11.38;10.13;;;;;;;14.72;100.00;96020.41;5010769;28;20721;-90
2023/05/12 12:26:46;;;;;;;11.53;10.30;;;;;;;14.43;100.00;96028.44;5002175;28;20132;-91
2023/05/12 12:29:11;;;;;;;12.50;9.87;;;;;;;14.81;100.00;96027.19;5009329;28;20041;-91
2023/05/12 12:31:37;;;;;;;12.55;10.82;;;;;;;14.88;100.00;96029.09;5025273;28;20085;-94
2023/05/12 12:34:06;;;;;;;11.88;10.68;;;;;;;14.93;100.00;96029.34;5012992;28;20025;-91
2023/05/12 12:36:34;;;;;;;12.73;10.40;;;;;;;15.15;100.00;96030.09;5010550;28;20025;-91
2023/05/12 12:39:01;;;;;;;14.40;10.95;;;;;;;15.33;100.00;96023.31;4992193;28;20057;-90
2023/05/12 12:41:27;;;;;;;15.63;13.32;;;;;;;15.06;100.00;96027.63;4989395;28;20061;-92
2023/05/12 12:43:53;;;;;;;15.50;12.55;;;;;;;15.29;100.00;96029.19;5004788;28;20022;-91
2023/05/12 12:46:19;;;;;;;13.57;10.30;;;;;;;15.46;100.00;96021.75;5006622;28;20026;-91
2023/05/12 12:48:45;;;;;;;11.80;10.53;;;;;;;15.46;100.00;96033.19;5000679;28;20034;-91
2023/05/12 12:51:11;;;;;;;12.27;10.07;;;;;;;15.44;100.00;96034.41;5000733;28;20044;-92
2023/05/12 12:53:37;;;;;;;13.32;11.30;;;;;;;15.50;100.00;96029.13;5019883;28;20965;-92
2023/05/12 12:56:15;;;;;;;12.07;10.77;;;;;;;15.22;100.00;96039.72;5015156;28;20026;-91
2023/05/12 12:58:41;;;;;;;13.68;8.43;;;;;;;14.88;100.00;96043.13;5005788;28;20033;-91
2023/05/12 13:01:07;;;;;;;6.60;5.57;;;;;;;14.74;100.00;96042.19;4989999;28;20029;-92
2023/05/12 13:03:33;;;;;;;6.07;4.03;;;;;;;14.19;100.00;96048.13;4993433;28;20083;-91
2023/05/12 13:05:58;;;;;;;5.90;3.80;;;;;;;13.89;100.00;96049.00;4997592;28;20033;-91
2023/05/12 13:08:24;;;;;;;5.33;3.60;;;;;;;14.01;100.00;96048.50;5008999;28;20048;-91
2023/05/12 13:10:54;;;;;;;7.17;5.20;;;;;;;14.33;100.00;96045.44;4998139;28;20084;-91
2023/05/12 13:14:11;;;;;;;7.07;4.40;;;;;;;14.10;100.00;96048.22;5004162;28;20080;-90
2023/05/12 13:17:22;;;;;;;5.13;3.57;;;;;;;14.01;100.00;96061.72;4935142;29;20051;-92
2023/05/12 13:20:36;;;;;;;7.50;3.07;;;;;;;14.08;100.00;96052.91;4942119;29;20131;-94
2023/05/12 13:24:33;;;;;;;6.63;4.10;;;;;;;14.26;100.00;96059.59;4871356;29;20193;-94
2023/05/12 13:27:07;;;;;;;6.70;3.40;;;;;;;14.21;100.00;96062.78;4884671;29;20033;-95
2023/05/12 13:30:23;;;;;;;6.23;3.40;;;;;;;13.94;100.00;96063.47;4906291;29;20047;-95
2023/05/12 13:48:41;;;;;;;7.23;3.73;;;;;;;13.99;100.00;96061.13;4899338;29;20099;-94
2023/05/12 13:51:09;;;;;;;8.20;5.40;;;;;;;13.85;100.00;96063.59;4938917;28;20158;-93
2023/05/12 13:53:37;;;;;;;6.93;5.40;;;;;;;14.07;100.00;96066.28;4966412;28;20132;-94
2023/05/12 13:56:17;;;;;;;9.20;5.10;;;;;;;14.09;100.00;96061.66;4996876;28;20056;-93
2023/05/12 13:58:43;;;;;;;6.77;4.90;;;;;;;14.29;100.00;96056.59;4997418;28;20045;-93
2023/05/12 14:01:11;;;;;;;6.40;4.20;;;;;;;14.23;100.00;96055.50;4998936;28;20859;-93
2023/05/12 14:03:36;;;;;;;7.33;5.10;;;;;;;14.51;100.00;96050.31;5000205;28;20095;-93
2023/05/12 14:06:03;;;;;;;6.70;5.00;;;;;;;14.14;100.00;96057.41;5001198;28;20017;-91
2023/05/12 14:08:28;;;;;;;7.13;5.13;;;;;;;14.20;100.00;96052.41;4999197;28;20081;-92
2023/05/12 14:10:55;;;;;;;6.20;4.30;;;;;;;14.15;100.00;96059.09;5000802;28;20087;-92
2023/05/12 14:13:21;;;;;;;6.00;4.30;;;;;;;14.15;100.00;96060.88;5002719;28;20588;-92
2023/05/12 14:15:46;;;;;;;6.70;4.70;;;;;;;13.95;100.00;96057.19;4996238;28;20022;-93
2023/05/12 14:22:04;;;;;;;7.40;4.87;;;;;;;13.82;100.00;96069.25;5004105;28;20539;-93
2023/05/12 14:25:20;;;;;;;10.17;5.23;;;;;;;13.84;100.00;96071.69;5023929;28;20036;-93
2023/05/12 14:27:46;;;;;;;7.93;5.63;;;;;;;13.81;100.00;96062.28;4989981;28;20037;-92
2023/05/12 14:30:12;;;;;;;6.70;5.30;;;;;;;14.20;100.00;96061.16;4994630;28;20680;-93
2023/05/12 14:32:38;;;;;;;7.20;5.50;;;;;;;14.26;100.00;96070.19;5028939;28;20025;-92
2023/05/12 14:35:04;;;;;;;6.90;5.20;;;;;;;14.39;100.00;96065.84;5007224;28;20026;-92
2023/05/12 14:37:31;;;;;;;8.67;6.37;;;;;;;14.36;100.00;96066.22;4999501;28;20506;-92
2023/05/12 14:39:57;;;;;;;8.97;6.47;;;;;;;14.46;100.00;96065.13;4995213;28;20037;-93
2023/05/12 14:42:23;;;;;;;8.33;6.63;;;;;;;14.67;100.00;96057.22;5005786;28;20044;-92
2023/05/12 14:44:49;;;;;;;7.83;6.13;;;;;;;14.75;100.00;96054.41;5006437;28;20029;-93
2023/05/12 14:47:15;;;;;;;8.17;6.20;;;;;;;14.39;100.00;96057.09;5026741;28;20026;-92
2023/05/12 14:49:41;;;;;;;8.67;6.40;;;;;;;14.32;100.00;96059.69;5008744;28;20032;-92
2023/05/12 14:52:14;;;;;;;8.33;6.37;;;;;;;14.26;100.00;96065.72;5002511;28;20059;-92
2023/05/12 14:54:40;;;;;;;8.77;6.10;;;;;;;14.43;100.00;96065.47;5001203;28;20029;-93
2023/05/12 14:57:07;;;;;;;8.13;6.43;;;;;;;14.76;100.00;96071.16;4990698;28;20052;-92
2023/05/12 14:59:32;;;;;;;8.03;6.60;;;;;;;14.62;100.00;96070.19;5013897;28;20482;-92
2023/05/12 15:01:58;;;;;;;8.53;6.23;;;;;;;14.18;100.00;96067.63;4990585;28;20021;-92
2023/05/12 15:04:24;;;;;;;7.83;6.17;;;;;;;14.29;100.00;96075.09;4995969;28;20079;-93
2023/05/12 15:06:50;;;;;;;9.47;6.63;;;;;;;14.23;100.00;96076.66;5010081;28;20085;-93
2023/05/12 15:09:19;;;;;;;21.27;9.93;;;;;;;13.78;100.00;96091.75;5001173;28;20084;-93
2023/05/12 15:11:45;;;;;;;19.33;9.60;;;;;;;13.78;100.00;96090.91;4994150;28;20785;-91
2023/05/12 15:14:11;;;;;;;8.63;6.80;;;;;;;13.30;100.00;96095.72;4991798;28;20021;-91
2023/05/12 15:16:37;;;;;;;9.03;7.57;;;;;;;13.49;100.00;96089.91;4992408;28;20052;-90
2023/05/12 15:19:09;;;;;;;8.70;7.33;;;;;;;13.82;100.00;96090.38;5008141;28;20097;-91
2023/05/12 15:21:35;;;;;;;7.53;6.18;;;;;;;13.69;100.00;96084.91;4999164;28;20104;-95
2023/05/12 15:24:01;;;;;;;10.43;9.17;;;;;;;13.97;100.00;96085.06;5005250;28;20025;-96
2023/05/12 15:26:27;;;;;;;9.80;8.47;;;;;;;13.86;100.00;96086.38;5007894;28;20041;-95
2023/05/12 15:28:53;;;;;;;10.47;8.10;;;;;;;14.05;100.00;96079.72;5016844;28;20060;-95
2023/05/12 15:31:26;;;;;;;10.30;8.67;;;;;;;13.88;100.00;96078.25;5019012;28;20056;-95
2023/05/12 15:33:51;;;;;;;9.32;8.32;;;;;;;14.18;100.00;96078.22;4999766;28;20030;-89
2023/05/12 15:36:17;;;;;;;10.03;8.20;;;;;;;14.47;100.00;96075.50;5013822;28;20032;-89
2023/05/12 15:38:45;;;;;;;11.20;8.60;;;;;;;14.41;100.00;96080.72;5012214;28;20033;-89
2023/05/12 15:41:13;;;;;;;9.30;7.90;;;;;;;14.60;100.00;96080.16;5005489;28;20064;-90
2023/05/12 15:43:39;;;;;;;10.23;8.03;;;;;;;14.78;100.00;96077.88;5011439;28;20029;-89
2023/05/12 15:46:15;;;;;;;10.67;8.80;;;;;;;14.62;100.00;96080.78;5001872;28;20060;-89
2023/05/12 15:48:41;;;;;;;8.83;7.33;;;;;;;14.92;100.00;96073.50;5013316;28;20029;-90
2023/05/12 15:51:06;;;;;;;11.47;9.10;;;;;;;14.77;100.00;96078.06;5007884;28;20048;-89
2023/05/12 15:53:32;;;;;;;12.70;10.20;;;;;;;14.71;100.00;96079.63;5008746;28;20060;-90
2023/05/12 15:56:02;;;;;;;10.97;9.17;;;;;;;14.82;100.00;96073.84;5020801;28;20030;-90
2023/05/12 15:58:28;;;;;;;8.13;6.93;;;;;;;14.61;100.00;96076.47;5037461;28;20041;-90
2023/05/12 16:00:59;;;;;;;11.47;6.83;;;;;;;14.67;100.00;96067.78;5001610;28;20056;-90
2023/05/12 16:03:25;;;;;;;10.47;6.53;;;;;;;14.61;100.00;96079.94;5016678;28;20021;-91
2023/05/12 16:05:51;;;;;;;17.73;11.47;;;;;;;14.41;100.00;96078.88;5010463;28;20522;-91
2023/05/12 16:08:17;;;;;;;14.20;12.37;;;;;;;14.44;100.00;96080.34;5003074;28;20511;-92
2023/05/12 16:10:44;;;;;;;13.07;9.63;;;;;;;14.34;100.00;96081.44;4997004;28;20033;-91
2023/05/12 16:13:09;;;;;;;7.87;6.63;;;;;;;14.10;100.00;96087.06;5000898;28;20040;-91
2023/05/12 16:15:35;;;;;;;9.33;6.30;;;;;;;14.42;100.00;96087.63;5013347;28;20021;-91
2023/05/12 16:18:00;;;;;;;6.60;4.27;;;;;;;14.03;100.00;96088.81;5012774;28;20041;-90
2023/05/12 16:20:28;;;;;;;8.67;3.90;;;;;;;14.27;100.00;96085.03;4999558;28;20120;-92
2023/05/12 16:22:54;;;;;;;5.60;3.40;;;;;;;13.59;100.00;96092.28;4990346;28;20044;-90
2023/05/12 16:25:21;;;;;;;4.73;2.93;;;;;;;13.38;100.00;96107.03;4998497;28;20038;-90
2023/05/12 16:27:47;;;;;;;3.43;2.20;;;;;;;13.27;100.00;96102.16;4997913;28;20026;-90
2023/05/12 16:30:13;;;;;;;4.70;2.87;;;;;;;13.26;100.00;96105.81;5010171;28;20084;-80
2023/05/12 16:32:38;;;;;;;3.40;2.10;;;;;;;12.94;100.00;96097.16;5009344;28;20018;-91
2023/05/12 16:35:05;;;;;;;3.37;2.20;;;;;;;13.25;100.00;96098.91;5014278;28;20362;-89
2023/05/12 16:37:31;;;;;;;5.30;2.50;;;;;;;13.19;100.00;96103.03;5005063;28;20057;-90
2023/05/12 16:40:03;;;;;;;4.87;2.43;;;;;;;12.94;100.00;96107.72;5000295;28;20032;-90
2023/05/12 16:42:29;;;;;;;4.37;1.83;;;;;;;13.17;100.00;96107.66;5006451;28;20028;-90
2023/05/12 16:44:59;;;;;;;6.63;1.70;;;;;;;13.09;100.00;96104.28;5014189;28;20035;-91